sensor_id;sensor_type;location;lat;lon;timestamp;temperature;humidity
20418;DHT22;10368;51.436;6.774;2024-02-21T00:00:38;9.20;99.90
20418;DHT22;10368;51.436;6.774;2024-02-21T00:03:06;9.30;99.90
20418;DHT22;10368;51.436;6.774;2024-02-21T00:05:33;9.20;99.90
20418;DHT22;10368;51.436;6.774;2024-02-21T00:08:00;9.30;99.90
20418;DHT22;10368;51.436;6.774;2024-02-21T00:10:27;9.20;99.90
20418;DHT22;10368;51.436;6.774;2024-02-21T00:12:54;9.20;99.90
20418;DHT22;10368;51.436;6.774;2024-02-21T00:15:21;9.30;99.90
20418;DHT22;10368;51.436;6.774;2024-02-21T00:17:48;9.30;99.90
20418;DHT22;10368;51.436;6.774;2024-02-21T00:20:15;9.30;99.90
20418;DHT22;10368;51.436;6.774;2024-02-21T00:22:42;9.30;99.90
20418;DHT22;10368;51.436;6.774;2024-02-21T00:25:10;9.30;99.90
20418;DHT22;10368;51.436;6.774;2024-02-21T00:27:37;9.30;99.90
20418;DHT22;10368;51.436;6.774;2024-02-21T00:30:05;9.30;99.90
20418;DHT22;10368;51.436;6.774;2024-02-21T00:32:32;9.30;99.90
20418;DHT22;10368;51.436;6.774;2024-02-21T00:35:01;9.30;99.90
20418;DHT22;10368;51.436;6.774;2024-02-21T00:37:29;9.30;99.90
20418;DHT22;10368;51.436;6.774;2024-02-21T00:39:55;9.30;99.90
20418;DHT22;10368;51.436;6.774;2024-02-21T00:42:22;9.30;99.90
20418;DHT22;10368;51.436;6.774;2024-02-21T00:44:49;9.30;99.90
20418;DHT22;10368;51.436;6.774;2024-02-21T00:47:16;9.30;99.90
20418;DHT22;10368;51.436;6.774;2024-02-21T00:49:43;9.30;99.90
20418;DHT22;10368;51.436;6.774;2024-02-21T00:52:10;9.30;99.90
20418;DHT22;10368;51.436;6.774;2024-02-21T00:54:37;9.30;99.90
20418;DHT22;10368;51.436;6.774;2024-02-21T00:57:18;9.30;99.90
20418;DHT22;10368;51.436;6.774;2024-02-21T00:59:45;9.30;99.90
20418;DHT22;10368;51.436;6.774;2024-02-21T01:02:12;9.30;99.90
20418;DHT22;10368;51.436;6.774;2024-02-21T01:04:39;9.30;99.90
20418;DHT22;10368;51.436;6.774;2024-02-21T01:07:06;9.30;99.90
20418;DHT22;10368;51.436;6.774;2024-02-21T01:09:33;9.30;99.90
20418;DHT22;10368;51.436;6.774;2024-02-21T01:12:00;9.30;99.90
20418;DHT22;10368;51.436;6.774;2024-02-21T01:14:27;9.30;99.90
20418;DHT22;10368;51.436;6.774;2024-02-21T01:16:54;9.30;99.90
20418;DHT22;10368;51.436;6.774;2024-02-21T01:19:22;9.30;99.90
20418;DHT22;10368;51.436;6.774;2024-02-21T01:21:50;9.30;99.90
20418;DHT22;10368;51.436;6.774;2024-02-21T01:24:17;9.30;99.90
20418;DHT22;10368;51.436;6.774;2024-02-21T01:26:44;9.30;99.90
20418;DHT22;10368;51.436;6.774;2024-02-21T01:29:11;9.30;99.90
20418;DHT22;10368;51.436;6.774;2024-02-21T01:31:38;9.30;99.90
20418;DHT22;10368;51.436;6.774;2024-02-21T01:34:05;9.30;99.90
20418;DHT22;10368;51.436;6.774;2024-02-21T01:36:32;9.30;99.90
20418;DHT22;10368;51.436;6.774;2024-02-21T01:38:59;9.30;99.90
20418;DHT22;10368;51.436;6.774;2024-02-21T01:41:26;9.30;99.90
20418;DHT22;10368;51.436;6.774;2024-02-21T01:43:53;9.30;99.90
20418;DHT22;10368;51.436;6.774;2024-02-21T01:46:20;9.30;99.90
20418;DHT22;10368;51.436;6.774;2024-02-21T01:48:47;9.30;99.90
20418;DHT22;10368;51.436;6.774;2024-02-21T01:51:15;9.30;99.90
20418;DHT22;10368;51.436;6.774;2024-02-21T01:53:46;9.30;99.90
20418;DHT22;10368;51.436;6.774;2024-02-21T01:56:13;9.40;99.90
20418;DHT22;10368;51.436;6.774;2024-02-21T01:58:42;9.30;99.90
20418;DHT22;10368;51.436;6.774;2024-02-21T02:01:10;9.30;99.90
20418;DHT22;10368;51.436;6.774;2024-02-21T02:03:37;9.30;99.90
20418;DHT22;10368;51.436;6.774;2024-02-21T02:06:05;9.40;99.90
20418;DHT22;10368;51.436;6.774;2024-02-21T02:08:35;9.30;99.90
20418;DHT22;10368;51.436;6.774;2024-02-21T02:11:02;9.30;99.90
20418;DHT22;10368;51.436;6.774;2024-02-21T02:13:29;9.30;99.90
20418;DHT22;10368;51.436;6.774;2024-02-21T02:15:56;9.30;99.90
20418;DHT22;10368;51.436;6.774;2024-02-21T02:18:23;9.30;99.90
20418;DHT22;10368;51.436;6.774;2024-02-21T02:20:50;9.30;99.90
20418;DHT22;10368;51.436;6.774;2024-02-21T02:23:25;9.30;99.90
20418;DHT22;10368;51.436;6.774;2024-02-21T02:25:52;9.30;99.90
20418;DHT22;10368;51.436;6.774;2024-02-21T02:28:21;9.30;99.90
20418;DHT22;10368;51.436;6.774;2024-02-21T02:30:49;9.30;99.90
20418;DHT22;10368;51.436;6.774;2024-02-21T02:33:16;9.30;99.90
20418;DHT22;10368;51.436;6.774;2024-02-21T02:35:46;9.30;99.90
20418;DHT22;10368;51.436;6.774;2024-02-21T02:38:13;9.20;99.90
20418;DHT22;10368;51.436;6.774;2024-02-21T02:40:41;9.20;99.90
20418;DHT22;10368;51.436;6.774;2024-02-21T02:43:09;9.20;99.90
20418;DHT22;10368;51.436;6.774;2024-02-21T02:45:36;9.20;99.90
20418;DHT22;10368;51.436;6.774;2024-02-21T02:48:03;9.20;99.90
20418;DHT22;10368;51.436;6.774;2024-02-21T02:50:31;9.20;99.90
20418;DHT22;10368;51.436;6.774;2024-02-21T02:52:58;9.20;99.90
20418;DHT22;10368;51.436;6.774;2024-02-21T02:55:25;9.20;99.90
20418;DHT22;10368;51.436;6.774;2024-02-21T02:57:53;9.20;99.90
20418;DHT22;10368;51.436;6.774;2024-02-21T03:00:20;9.10;99.90
20418;DHT22;10368;51.436;6.774;2024-02-21T03:02:49;9.10;99.90
20418;DHT22;10368;51.436;6.774;2024-02-21T03:05:17;9.10;99.90
20418;DHT22;10368;51.436;6.774;2024-02-21T03:07:45;9.10;99.90
20418;DHT22;10368;51.436;6.774;2024-02-21T03:10:13;9.00;99.90
20418;DHT22;10368;51.436;6.774;2024-02-21T03:12:43;9.10;99.90
20418;DHT22;10368;51.436;6.774;2024-02-21T03:15:10;9.00;99.90
20418;DHT22;10368;51.436;6.774;2024-02-21T03:17:37;9.00;99.90
20418;DHT22;10368;51.436;6.774;2024-02-21T03:20:05;9.00;99.90
20418;DHT22;10368;51.436;6.774;2024-02-21T03:22:39;9.00;99.90
20418;DHT22;10368;51.436;6.774;2024-02-21T03:25:07;9.00;99.90
20418;DHT22;10368;51.436;6.774;2024-02-21T03:27:34;9.10;99.90
20418;DHT22;10368;51.436;6.774;2024-02-21T03:30:01;9.00;99.90
20418;DHT22;10368;51.436;6.774;2024-02-21T03:32:28;9.00;99.90
20418;DHT22;10368;51.436;6.774;2024-02-21T03:34:56;9.00;99.90
20418;DHT22;10368;51.436;6.774;2024-02-21T03:37:23;9.00;99.90
20418;DHT22;10368;51.436;6.774;2024-02-21T03:39:51;9.00;99.90
20418;DHT22;10368;51.436;6.774;2024-02-21T03:42:18;9.00;99.90
20418;DHT22;10368;51.436;6.774;2024-02-21T03:44:44;9.00;99.90
20418;DHT22;10368;51.436;6.774;2024-02-21T03:47:11;9.00;99.90
20418;DHT22;10368;51.436;6.774;2024-02-21T03:49:39;9.00;99.90
20418;DHT22;10368;51.436;6.774;2024-02-21T03:52:06;9.00;99.90
20418;DHT22;10368;51.436;6.774;2024-02-21T03:54:33;9.00;99.90
20418;DHT22;10368;51.436;6.774;2024-02-21T03:57:00;9.00;99.90
20418;DHT22;10368;51.436;6.774;2024-02-21T03:59:27;9.00;99.90
20418;DHT22;10368;51.436;6.774;2024-02-21T04:01:54;9.00;99.90
20418;DHT22;10368;51.436;6.774;2024-02-21T04:04:21;9.00;99.90
20418;DHT22;10368;51.436;6.774;2024-02-21T04:06:51;9.00;99.90
20418;DHT22;10368;51.436;6.774;2024-02-21T04:09:18;9.00;99.90
20418;DHT22;10368;51.436;6.774;2024-02-21T04:11:45;9.00;99.90
20418;DHT22;10368;51.436;6.774;2024-02-21T04:14:12;9.00;99.90
20418;DHT22;10368;51.436;6.774;2024-02-21T04:16:39;9.00;99.90
20418;DHT22;10368;51.436;6.774;2024-02-21T04:19:07;9.00;99.90
20418;DHT22;10368;51.436;6.774;2024-02-21T04:21:35;9.00;99.90
20418;DHT22;10368;51.436;6.774;2024-02-21T04:24:02;9.00;99.90
20418;DHT22;10368;51.436;6.774;2024-02-21T04:26:33;9.00;99.90
20418;DHT22;10368;51.436;6.774;2024-02-21T04:29:00;9.00;99.90
20418;DHT22;10368;51.436;6.774;2024-02-21T04:31:27;9.00;99.90
20418;DHT22;10368;51.436;6.774;2024-02-21T04:33:55;9.10;99.90
20418;DHT22;10368;51.436;6.774;2024-02-21T04:36:22;9.10;99.90
20418;DHT22;10368;51.436;6.774;2024-02-21T04:38:49;9.10;99.90
20418;DHT22;10368;51.436;6.774;2024-02-21T04:41:17;9.10;99.90
20418;DHT22;10368;51.436;6.774;2024-02-21T04:43:46;9.10;99.90
20418;DHT22;10368;51.436;6.774;2024-02-21T04:46:14;9.10;99.90
20418;DHT22;10368;51.436;6.774;2024-02-21T04:48:41;9.10;99.90
20418;DHT22;10368;51.436;6.774;2024-02-21T04:51:08;9.10;99.90
20418;DHT22;10368;51.436;6.774;2024-02-21T04:53:35;9.10;99.90
20418;DHT22;10368;51.436;6.774;2024-02-21T04:56:01;9.20;99.90
20418;DHT22;10368;51.436;6.774;2024-02-21T04:58:29;9.10;99.90
20418;DHT22;10368;51.436;6.774;2024-02-21T05:00:55;9.10;99.90
20418;DHT22;10368;51.436;6.774;2024-02-21T05:03:23;9.20;99.90
20418;DHT22;10368;51.436;6.774;2024-02-21T05:05:50;9.10;99.90
20418;DHT22;10368;51.436;6.774;2024-02-21T05:08:17;9.20;99.90
20418;DHT22;10368;51.436;6.774;2024-02-21T05:10:44;9.20;99.90
20418;DHT22;10368;51.436;6.774;2024-02-21T05:13:11;9.10;99.90
20418;DHT22;10368;51.436;6.774;2024-02-21T05:15:38;9.20;99.90
20418;DHT22;10368;51.436;6.774;2024-02-21T05:18:05;9.20;99.90
20418;DHT22;10368;51.436;6.774;2024-02-21T05:20:32;9.10;99.90
20418;DHT22;10368;51.436;6.774;2024-02-21T05:22:59;9.10;99.90
20418;DHT22;10368;51.436;6.774;2024-02-21T05:25:27;9.10;99.90
20418;DHT22;10368;51.436;6.774;2024-02-21T05:27:53;9.10;99.90
20418;DHT22;10368;51.436;6.774;2024-02-21T05:30:22;9.10;99.90
20418;DHT22;10368;51.436;6.774;2024-02-21T05:32:49;9.10;99.90
20418;DHT22;10368;51.436;6.774;2024-02-21T05:35:16;9.10;99.90
20418;DHT22;10368;51.436;6.774;2024-02-21T05:37:43;9.10;99.90
20418;DHT22;10368;51.436;6.774;2024-02-21T05:40:10;9.00;99.90
20418;DHT22;10368;51.436;6.774;2024-02-21T05:42:40;9.10;99.90
20418;DHT22;10368;51.436;6.774;2024-02-21T05:45:07;9.00;99.90
20418;DHT22;10368;51.436;6.774;2024-02-21T05:47:34;9.10;99.90
20418;DHT22;10368;51.436;6.774;2024-02-21T05:50:01;9.10;99.90
20418;DHT22;10368;51.436;6.774;2024-02-21T05:52:28;9.00;99.90
20418;DHT22;10368;51.436;6.774;2024-02-21T05:54:55;9.20;99.90
20418;DHT22;10368;51.436;6.774;2024-02-21T05:57:21;9.00;99.90
20418;DHT22;10368;51.436;6.774;2024-02-21T05:59:48;9.10;99.90
20418;DHT22;10368;51.436;6.774;2024-02-21T06:02:15;9.00;99.90
20418;DHT22;10368;51.436;6.774;2024-02-21T06:04:42;9.00;99.90
20418;DHT22;10368;51.436;6.774;2024-02-21T06:07:11;9.00;99.90
20418;DHT22;10368;51.436;6.774;2024-02-21T06:09:38;9.10;99.90
20418;DHT22;10368;51.436;6.774;2024-02-21T06:14:45;9.00;99.90
20418;DHT22;10368;51.436;6.774;2024-02-21T06:17:12;9.00;99.90
20418;DHT22;10368;51.436;6.774;2024-02-21T06:19:41;9.00;99.90
20418;DHT22;10368;51.436;6.774;2024-02-21T06:22:08;9.00;99.90
20418;DHT22;10368;51.436;6.774;2024-02-21T06:24:36;9.00;99.90
20418;DHT22;10368;51.436;6.774;2024-02-21T06:27:07;9.10;99.90
20418;DHT22;10368;51.436;6.774;2024-02-21T06:29:36;9.00;99.90
20418;DHT22;10368;51.436;6.774;2024-02-21T06:32:04;9.00;99.90
20418;DHT22;10368;51.436;6.774;2024-02-21T06:34:31;9.00;99.90
20418;DHT22;10368;51.436;6.774;2024-02-21T06:37:00;9.00;99.90
20418;DHT22;10368;51.436;6.774;2024-02-21T06:39:27;9.00;99.90
20418;DHT22;10368;51.436;6.774;2024-02-21T06:41:56;9.00;99.90
20418;DHT22;10368;51.436;6.774;2024-02-21T06:44:28;9.00;99.90
20418;DHT22;10368;51.436;6.774;2024-02-21T06:46:55;9.00;99.90
20418;DHT22;10368;51.436;6.774;2024-02-21T06:49:22;9.00;99.90
20418;DHT22;10368;51.436;6.774;2024-02-21T06:51:50;9.00;99.90
20418;DHT22;10368;51.436;6.774;2024-02-21T06:54:17;9.00;99.90
20418;DHT22;10368;51.436;6.774;2024-02-21T06:56:43;9.00;99.90
20418;DHT22;10368;51.436;6.774;2024-02-21T06:59:10;9.10;99.90
20418;DHT22;10368;51.436;6.774;2024-02-21T07:01:38;9.00;99.90
20418;DHT22;10368;51.436;6.774;2024-02-21T07:04:05;9.10;99.90
20418;DHT22;10368;51.436;6.774;2024-02-21T07:06:32;9.10;99.90
20418;DHT22;10368;51.436;6.774;2024-02-21T07:09:01;9.10;99.90
20418;DHT22;10368;51.436;6.774;2024-02-21T07:11:28;9.10;99.90
20418;DHT22;10368;51.436;6.774;2024-02-21T07:13:56;9.10;99.90
20418;DHT22;10368;51.436;6.774;2024-02-21T07:16:23;9.20;99.90
20418;DHT22;10368;51.436;6.774;2024-02-21T07:18:50;9.10;99.90
20418;DHT22;10368;51.436;6.774;2024-02-21T07:21:16;9.20;99.90
20418;DHT22;10368;51.436;6.774;2024-02-21T07:23:43;9.10;99.90
20418;DHT22;10368;51.436;6.774;2024-02-21T07:26:10;9.20;99.90
20418;DHT22;10368;51.436;6.774;2024-02-21T07:28:37;9.20;99.90
20418;DHT22;10368;51.436;6.774;2024-02-21T07:31:04;9.20;99.90
20418;DHT22;10368;51.436;6.774;2024-02-21T07:33:31;9.20;99.90
20418;DHT22;10368;51.436;6.774;2024-02-21T07:35:59;9.20;99.90
20418;DHT22;10368;51.436;6.774;2024-02-21T07:38:26;9.20;99.90
20418;DHT22;10368;51.436;6.774;2024-02-21T07:40:53;9.20;99.90
20418;DHT22;10368;51.436;6.774;2024-02-21T07:43:20;9.20;99.90
20418;DHT22;10368;51.436;6.774;2024-02-21T07:45:49;9.30;99.90
20418;DHT22;10368;51.436;6.774;2024-02-21T07:48:16;9.30;99.90
20418;DHT22;10368;51.436;6.774;2024-02-21T07:50:43;9.30;99.90
20418;DHT22;10368;51.436;6.774;2024-02-21T07:53:10;9.30;99.90
20418;DHT22;10368;51.436;6.774;2024-02-21T07:55:37;9.30;99.90
20418;DHT22;10368;51.436;6.774;2024-02-21T07:58:04;9.30;99.90
20418;DHT22;10368;51.436;6.774;2024-02-21T08:00:30;9.30;99.90
20418;DHT22;10368;51.436;6.774;2024-02-21T08:02:57;9.30;99.90
20418;DHT22;10368;51.436;6.774;2024-02-21T08:05:24;9.30;99.90
20418;DHT22;10368;51.436;6.774;2024-02-21T08:07:52;9.30;99.90
20418;DHT22;10368;51.436;6.774;2024-02-21T08:10:22;9.30;99.90
20418;DHT22;10368;51.436;6.774;2024-02-21T08:12:49;9.30;99.90
20418;DHT22;10368;51.436;6.774;2024-02-21T08:15:16;9.30;99.90
20418;DHT22;10368;51.436;6.774;2024-02-21T08:17:43;9.40;99.90
20418;DHT22;10368;51.436;6.774;2024-02-21T08:20:10;9.40;99.90
20418;DHT22;10368;51.436;6.774;2024-02-21T08:22:37;9.40;99.90
20418;DHT22;10368;51.436;6.774;2024-02-21T08:25:05;9.40;99.90
20418;DHT22;10368;51.436;6.774;2024-02-21T08:27:32;9.40;99.90
20418;DHT22;10368;51.436;6.774;2024-02-21T08:29:59;9.30;99.90
20418;DHT22;10368;51.436;6.774;2024-02-21T08:32:26;9.30;99.90
20418;DHT22;10368;51.436;6.774;2024-02-21T08:34:55;9.30;99.90
20418;DHT22;10368;51.436;6.774;2024-02-21T08:37:22;9.30;99.90
20418;DHT22;10368;51.436;6.774;2024-02-21T08:39:49;9.30;99.90
20418;DHT22;10368;51.436;6.774;2024-02-21T08:42:16;9.20;99.90
20418;DHT22;10368;51.436;6.774;2024-02-21T08:44:43;9.10;99.90
20418;DHT22;10368;51.436;6.774;2024-02-21T08:47:10;9.10;99.90
20418;DHT22;10368;51.436;6.774;2024-02-21T08:49:38;9.10;99.90
20418;DHT22;10368;51.436;6.774;2024-02-21T08:52:05;9.10;99.90
20418;DHT22;10368;51.436;6.774;2024-02-21T08:54:32;9.20;99.90
20418;DHT22;10368;51.436;6.774;2024-02-21T08:57:00;9.20;99.90
20418;DHT22;10368;51.436;6.774;2024-02-21T08:59:27;9.20;99.90
20418;DHT22;10368;51.436;6.774;2024-02-21T09:01:54;9.20;99.90
20418;DHT22;10368;51.436;6.774;2024-02-21T09:04:21;9.20;99.90
20418;DHT22;10368;51.436;6.774;2024-02-21T09:06:49;9.30;99.90
20418;DHT22;10368;51.436;6.774;2024-02-21T09:09:15;9.20;99.90
20418;DHT22;10368;51.436;6.774;2024-02-21T09:11:42;9.30;99.90
20418;DHT22;10368;51.436;6.774;2024-02-21T09:14:09;9.30;99.90
20418;DHT22;10368;51.436;6.774;2024-02-21T09:16:36;9.30;99.90
20418;DHT22;10368;51.436;6.774;2024-02-21T09:19:04;9.30;99.90
20418;DHT22;10368;51.436;6.774;2024-02-21T09:21:31;9.30;99.90
20418;DHT22;10368;51.436;6.774;2024-02-21T09:23:58;9.40;99.90
20418;DHT22;10368;51.436;6.774;2024-02-21T09:26:26;9.50;99.90
20418;DHT22;10368;51.436;6.774;2024-02-21T09:28:53;9.40;99.90
20418;DHT22;10368;51.436;6.774;2024-02-21T09:31:20;9.50;99.90
20418;DHT22;10368;51.436;6.774;2024-02-21T09:33:47;9.50;99.90
20418;DHT22;10368;51.436;6.774;2024-02-21T09:36:14;9.50;99.90
20418;DHT22;10368;51.436;6.774;2024-02-21T09:38:41;9.60;99.90
20418;DHT22;10368;51.436;6.774;2024-02-21T09:41:18;9.50;99.90
20418;DHT22;10368;51.436;6.774;2024-02-21T09:43:51;9.50;99.90
20418;DHT22;10368;51.436;6.774;2024-02-21T09:46:38;9.50;99.90
20418;DHT22;10368;51.436;6.774;2024-02-21T09:51:43;9.40;99.90
20418;DHT22;10368;51.436;6.774;2024-02-21T09:54:10;9.40;99.90
20418;DHT22;10368;51.436;6.774;2024-02-21T09:56:45;9.50;99.90
20418;DHT22;10368;51.436;6.774;2024-02-21T09:59:15;9.60;99.90
20418;DHT22;10368;51.436;6.774;2024-02-21T10:01:45;9.60;99.90
20418;DHT22;10368;51.436;6.774;2024-02-21T10:04:13;9.70;99.90
20418;DHT22;10368;51.436;6.774;2024-02-21T10:06:41;9.70;99.90
20418;DHT22;10368;51.436;6.774;2024-02-21T10:09:08;9.60;99.90
20418;DHT22;10368;51.436;6.774;2024-02-21T10:11:35;9.60;99.90
20418;DHT22;10368;51.436;6.774;2024-02-21T10:14:07;9.60;99.90
20418;DHT22;10368;51.436;6.774;2024-02-21T10:16:35;9.70;99.90
20418;DHT22;10368;51.436;6.774;2024-02-21T10:19:04;9.60;99.90
20418;DHT22;10368;51.436;6.774;2024-02-21T10:21:32;9.60;99.90
20418;DHT22;10368;51.436;6.774;2024-02-21T10:23:59;9.70;99.90
20418;DHT22;10368;51.436;6.774;2024-02-21T10:26:26;9.70;99.90
20418;DHT22;10368;51.436;6.774;2024-02-21T10:28:53;9.70;99.90
20418;DHT22;10368;51.436;6.774;2024-02-21T10:31:25;9.80;99.90
20418;DHT22;10368;51.436;6.774;2024-02-21T10:34:02;9.80;99.90
20418;DHT22;10368;51.436;6.774;2024-02-21T10:36:30;9.80;99.90
20418;DHT22;10368;51.436;6.774;2024-02-21T10:38:57;9.80;99.90
20418;DHT22;10368;51.436;6.774;2024-02-21T10:41:24;9.80;99.90
20418;DHT22;10368;51.436;6.774;2024-02-21T10:43:53;9.80;99.90
20418;DHT22;10368;51.436;6.774;2024-02-21T10:46:23;9.90;99.90
20418;DHT22;10368;51.436;6.774;2024-02-21T10:49:10;9.90;99.90
20418;DHT22;10368;51.436;6.774;2024-02-21T10:51:42;9.90;99.90
20418;DHT22;10368;51.436;6.774;2024-02-21T10:57:12;10.00;99.90
20418;DHT22;10368;51.436;6.774;2024-02-21T10:59:40;10.10;99.90
20418;DHT22;10368;51.436;6.774;2024-02-21T11:02:07;10.10;99.90
20418;DHT22;10368;51.436;6.774;2024-02-21T11:04:35;10.20;99.90
20418;DHT22;10368;51.436;6.774;2024-02-21T11:07:06;10.10;99.90
20418;DHT22;10368;51.436;6.774;2024-02-21T11:09:37;10.10;99.90
20418;DHT22;10368;51.436;6.774;2024-02-21T11:12:05;10.20;99.90
20418;DHT22;10368;51.436;6.774;2024-02-21T11:14:33;10.20;99.90
20418;DHT22;10368;51.436;6.774;2024-02-21T11:17:19;10.20;99.90
20418;DHT22;10368;51.436;6.774;2024-02-21T11:19:46;10.30;99.90
20418;DHT22;10368;51.436;6.774;2024-02-21T11:22:19;10.40;99.90
20418;DHT22;10368;51.436;6.774;2024-02-21T11:24:46;10.40;99.90
20418;DHT22;10368;51.436;6.774;2024-02-21T11:27:15;10.50;99.90
20418;DHT22;10368;51.436;6.774;2024-02-21T11:29:46;10.40;99.90
20418;DHT22;10368;51.436;6.774;2024-02-21T11:32:17;10.50;99.90
20418;DHT22;10368;51.436;6.774;2024-02-21T11:35:01;10.50;99.90
20418;DHT22;10368;51.436;6.774;2024-02-21T11:37:35;10.50;99.90
20418;DHT22;10368;51.436;6.774;2024-02-21T11:40:07;10.60;99.90
20418;DHT22;10368;51.436;6.774;2024-02-21T11:42:38;10.50;99.90
20418;DHT22;10368;51.436;6.774;2024-02-21T11:45:06;10.60;99.90
20418;DHT22;10368;51.436;6.774;2024-02-21T11:47:35;10.70;99.90
20418;DHT22;10368;51.436;6.774;2024-02-21T11:50:10;10.70;99.90
20418;DHT22;10368;51.436;6.774;2024-02-21T11:52:37;10.70;99.90
20418;DHT22;10368;51.436;6.774;2024-02-21T11:55:05;10.80;99.90
20418;DHT22;10368;51.436;6.774;2024-02-21T11:57:35;10.80;99.90
20418;DHT22;10368;51.436;6.774;2024-02-21T12:00:15;10.70;99.90
20418;DHT22;10368;51.436;6.774;2024-02-21T12:02:44;10.80;99.90
20418;DHT22;10368;51.436;6.774;2024-02-21T12:05:12;10.90;99.90
20418;DHT22;10368;51.436;6.774;2024-02-21T12:07:40;10.90;99.90
20418;DHT22;10368;51.436;6.774;2024-02-21T12:10:11;10.80;99.90
20418;DHT22;10368;51.436;6.774;2024-02-21T12:12:39;10.80;99.90
20418;DHT22;10368;51.436;6.774;2024-02-21T12:15:07;10.90;99.90
20418;DHT22;10368;51.436;6.774;2024-02-21T12:17:36;10.90;99.90
20418;DHT22;10368;51.436;6.774;2024-02-21T12:20:03;11.00;99.90
20418;DHT22;10368;51.436;6.774;2024-02-21T12:22:39;10.90;99.90
20418;DHT22;10368;51.436;6.774;2024-02-21T12:25:19;10.90;99.90
20418;DHT22;10368;51.436;6.774;2024-02-21T12:27:47;11.00;99.90
20418;DHT22;10368;51.436;6.774;2024-02-21T12:30:15;11.00;99.90
20418;DHT22;10368;51.436;6.774;2024-02-21T12:32:42;11.10;99.90
20418;DHT22;10368;51.436;6.774;2024-02-21T12:35:09;11.20;99.90
20418;DHT22;10368;51.436;6.774;2024-02-21T12:37:36;11.20;99.90
20418;DHT22;10368;51.436;6.774;2024-02-21T12:40:07;11.30;99.90
20418;DHT22;10368;51.436;6.774;2024-02-21T12:42:34;11.30;99.90
20418;DHT22;10368;51.436;6.774;2024-02-21T12:45:02;11.30;99.90
20418;DHT22;10368;51.436;6.774;2024-02-21T12:47:30;11.40;99.90
20418;DHT22;10368;51.436;6.774;2024-02-21T12:49:57;11.50;99.90
20418;DHT22;10368;51.436;6.774;2024-02-21T12:52:25;11.60;99.90
20418;DHT22;10368;51.436;6.774;2024-02-21T12:54:52;11.70;99.90
20418;DHT22;10368;51.436;6.774;2024-02-21T12:57:23;11.80;99.90
20418;DHT22;10368;51.436;6.774;2024-02-21T12:59:52;11.80;99.90
20418;DHT22;10368;51.436;6.774;2024-02-21T13:02:20;11.90;99.90
20418;DHT22;10368;51.436;6.774;2024-02-21T13:04:47;11.90;99.90
20418;DHT22;10368;51.436;6.774;2024-02-21T13:07:14;12.00;99.90
20418;DHT22;10368;51.436;6.774;2024-02-21T13:09:41;11.80;99.90
20418;DHT22;10368;51.436;6.774;2024-02-21T13:12:08;11.90;99.90
20418;DHT22;10368;51.436;6.774;2024-02-21T13:14:35;11.90;99.90
20418;DHT22;10368;51.436;6.774;2024-02-21T13:17:05;12.00;99.90
20418;DHT22;10368;51.436;6.774;2024-02-21T13:19:33;12.00;99.90
20418;DHT22;10368;51.436;6.774;2024-02-21T13:22:00;12.20;99.90
20418;DHT22;10368;51.436;6.774;2024-02-21T13:24:27;12.10;99.90
20418;DHT22;10368;51.436;6.774;2024-02-21T13:26:54;12.10;99.90
20418;DHT22;10368;51.436;6.774;2024-02-21T13:29:21;12.30;99.90
20418;DHT22;10368;51.436;6.774;2024-02-21T13:31:48;12.20;99.90
20418;DHT22;10368;51.436;6.774;2024-02-21T13:34:16;12.10;99.90
20418;DHT22;10368;51.436;6.774;2024-02-21T13:36:44;12.00;99.90
20418;DHT22;10368;51.436;6.774;2024-02-21T13:39:12;12.20;99.90
20418;DHT22;10368;51.436;6.774;2024-02-21T13:41:42;12.20;99.90
20418;DHT22;10368;51.436;6.774;2024-02-21T13:44:10;12.10;99.90
20418;DHT22;10368;51.436;6.774;2024-02-21T13:46:39;12.00;99.90
20418;DHT22;10368;51.436;6.774;2024-02-21T13:49:06;12.00;99.90
20418;DHT22;10368;51.436;6.774;2024-02-21T13:51:34;12.00;99.90
20418;DHT22;10368;51.436;6.774;2024-02-21T13:54:04;11.90;99.90
20418;DHT22;10368;51.436;6.774;2024-02-21T13:56:31;11.90;99.90
20418;DHT22;10368;51.436;6.774;2024-02-21T13:58:59;12.00;99.90
20418;DHT22;10368;51.436;6.774;2024-02-21T14:01:29;11.90;99.90
20418;DHT22;10368;51.436;6.774;2024-02-21T14:03:56;11.90;99.90
20418;DHT22;10368;51.436;6.774;2024-02-21T14:06:23;11.80;99.90
20418;DHT22;10368;51.436;6.774;2024-02-21T14:08:50;11.80;99.90
20418;DHT22;10368;51.436;6.774;2024-02-21T14:11:17;11.80;99.90
20418;DHT22;10368;51.436;6.774;2024-02-21T14:13:45;12.00;99.90
20418;DHT22;10368;51.436;6.774;2024-02-21T14:16:12;12.00;99.90
20418;DHT22;10368;51.436;6.774;2024-02-21T14:18:42;12.00;99.90
20418;DHT22;10368;51.436;6.774;2024-02-21T14:21:13;12.10;99.90
20418;DHT22;10368;51.436;6.774;2024-02-21T14:23:40;12.10;99.90
20418;DHT22;10368;51.436;6.774;2024-02-21T14:26:07;12.00;99.90
20418;DHT22;10368;51.436;6.774;2024-02-21T14:28:34;12.10;99.90
20418;DHT22;10368;51.436;6.774;2024-02-21T14:31:01;12.20;99.90
20418;DHT22;10368;51.436;6.774;2024-02-21T14:33:30;12.20;99.90
20418;DHT22;10368;51.436;6.774;2024-02-21T14:35:57;12.20;99.90
20418;DHT22;10368;51.436;6.774;2024-02-21T14:38:24;12.20;99.90
20418;DHT22;10368;51.436;6.774;2024-02-21T14:40:51;12.20;99.90
20418;DHT22;10368;51.436;6.774;2024-02-21T14:43:18;12.20;99.90
20418;DHT22;10368;51.436;6.774;2024-02-21T14:45:48;12.20;99.90
20418;DHT22;10368;51.436;6.774;2024-02-21T14:48:15;12.20;99.90
20418;DHT22;10368;51.436;6.774;2024-02-21T14:50:43;12.20;99.90
20418;DHT22;10368;51.436;6.774;2024-02-21T14:53:10;12.10;99.90
20418;DHT22;10368;51.436;6.774;2024-02-21T14:55:37;12.10;99.90
20418;DHT22;10368;51.436;6.774;2024-02-21T14:58:08;12.00;99.90
20418;DHT22;10368;51.436;6.774;2024-02-21T15:00:35;12.00;99.90
20418;DHT22;10368;51.436;6.774;2024-02-21T15:03:02;11.90;99.90
20418;DHT22;10368;51.436;6.774;2024-02-21T15:05:29;11.90;99.90
20418;DHT22;10368;51.436;6.774;2024-02-21T15:07:57;11.80;99.90
20418;DHT22;10368;51.436;6.774;2024-02-21T15:10:27;11.90;99.90
20418;DHT22;10368;51.436;6.774;2024-02-21T15:12:55;11.90;99.90
20418;DHT22;10368;51.436;6.774;2024-02-21T15:15:22;11.90;99.90
20418;DHT22;10368;51.436;6.774;2024-02-21T15:17:49;11.80;99.90
20418;DHT22;10368;51.436;6.774;2024-02-21T15:20:17;11.80;99.90
20418;DHT22;10368;51.436;6.774;2024-02-21T15:22:44;11.70;99.90
20418;DHT22;10368;51.436;6.774;2024-02-21T15:25:11;11.70;99.90
20418;DHT22;10368;51.436;6.774;2024-02-21T15:27:42;11.70;99.90
20418;DHT22;10368;51.436;6.774;2024-02-21T15:30:11;11.70;99.90
20418;DHT22;10368;51.436;6.774;2024-02-21T15:32:41;11.60;99.90
20418;DHT22;10368;51.436;6.774;2024-02-21T15:35:11;11.70;99.90
20418;DHT22;10368;51.436;6.774;2024-02-21T15:37:39;11.60;99.90
20418;DHT22;10368;51.436;6.774;2024-02-21T15:40:07;11.60;99.90
20418;DHT22;10368;51.436;6.774;2024-02-21T15:42:35;11.60;99.90
20418;DHT22;10368;51.436;6.774;2024-02-21T15:45:03;11.60;99.90
20418;DHT22;10368;51.436;6.774;2024-02-21T15:47:34;11.60;99.90
20418;DHT22;10368;51.436;6.774;2024-02-21T15:50:01;11.60;99.90
20418;DHT22;10368;51.436;6.774;2024-02-21T15:52:29;11.60;99.90
20418;DHT22;10368;51.436;6.774;2024-02-21T15:54:57;11.60;99.90